CheckWX is a tool to help pilots better visualize weather data.  It is not intended as a substitute for an official pre-flight weather briefing.

16:54:50 UTC

NLWW TAF
Hihifo Airport
Wallis Island, Samoa
TAF NLWW 181100Z 1812/1912 11008KT 9999 FEW020 PROB40 TEMPO 1812/1912 4000 SHRA BKN014 FEW018TCU PROB30 TEMPO 1812/1820 2000 SHRA BKN010 FEW018CB

Jun-18@
12:00 UTC

Jun-18 @ 12:00 UTC

Jun-19@
12:00 UTC

Jun-19 @ 12:00 UTC

TAF NLWW 181100Z 1812/1912 11008KT 9999 FEW020
Wind
  • 110° at 8 KTS
Cloud Levels
  • Few at 2,000' AGL

Jun-18@
12:00 UTC

Jun-18 @ 12:00 UTC

Jun-18@
20:00 UTC

Jun-18 @ 20:00 UTC

PROB30 TEMPO 1812/1820 2000 SHRA BKN010 FEW018CB

Temporary - 30% Likelihood

Temporary - 30% Likelihood during this time.

Conditions
Rain
Cloud Levels
  • Broken at 1,000' AGL
  • Few at 1,800' AGL

Jun-18@
12:00 UTC

Jun-18 @ 12:00 UTC

Jun-19@
12:00 UTC

Jun-19 @ 12:00 UTC

PROB40 TEMPO 1812/1912 4000 SHRA BKN014 FEW018TCU

Temporary - 40% Likelihood

Temporary - 40% Likelihood during this time.

Conditions
Rain
Cloud Levels
  • Broken at 1,400' AGL
  • Few at 1,800' AGL